sensor_id;sensor_type;location;lat;lon;timestamp;P1;durP1;ratioP1;P2;durP2;ratioP2
7683;SDS011;3884;48.616;12.872;2023-04-01T00:01:28;2.87;;;1.57;;
7683;SDS011;3884;48.616;12.872;2023-04-01T00:03:55;3.77;;;1.70;;
7683;SDS011;3884;48.616;12.872;2023-04-01T00:06:22;3.77;;;1.50;;
7683;SDS011;3884;48.616;12.872;2023-04-01T00:08:49;4.10;;;1.40;;
7683;SDS011;3884;48.616;12.872;2023-04-01T00:11:16;3.83;;;1.50;;
7683;SDS011;3884;48.616;12.872;2023-04-01T00:13:46;2.10;;;1.20;;
7683;SDS011;3884;48.616;12.872;2023-04-01T00:16:13;2.87;;;1.27;;
7683;SDS011;3884;48.616;12.872;2023-04-01T00:18:41;3.37;;;1.20;;
7683;SDS011;3884;48.616;12.872;2023-04-01T00:21:07;3.13;;;1.50;;
7683;SDS011;3884;48.616;12.872;2023-04-01T00:23:34;3.03;;;1.60;;
7683;SDS011;3884;48.616;12.872;2023-04-01T00:26:02;1.60;;;1.10;;
7683;SDS011;3884;48.616;12.872;2023-04-01T00:28:30;2.33;;;1.60;;
7683;SDS011;3884;48.616;12.872;2023-04-01T00:30:58;1.40;;;1.10;;
7683;SDS011;3884;48.616;12.872;2023-04-01T00:33:29;3.90;;;1.80;;
7683;SDS011;3884;48.616;12.872;2023-04-01T00:36:04;3.97;;;1.27;;
7683;SDS011;3884;48.616;12.872;2023-04-01T00:38:34;1.47;;;1.17;;
7683;SDS011;3884;48.616;12.872;2023-04-01T00:41:01;1.60;;;1.00;;
7683;SDS011;3884;48.616;12.872;2023-04-01T00:43:28;2.77;;;1.10;;
7683;SDS011;3884;48.616;12.872;2023-04-01T00:45:55;3.70;;;1.20;;
7683;SDS011;3884;48.616;12.872;2023-04-01T00:48:24;4.90;;;1.37;;
7683;SDS011;3884;48.616;12.872;2023-04-01T00:50:54;2.50;;;1.20;;
7683;SDS011;3884;48.616;12.872;2023-04-01T00:53:24;2.77;;;1.20;;
7683;SDS011;3884;48.616;12.872;2023-04-01T00:55:53;2.03;;;1.23;;
7683;SDS011;3884;48.616;12.872;2023-04-01T00:58:24;2.50;;;1.23;;
7683;SDS011;3884;48.616;12.872;2023-04-01T01:00:55;3.33;;;1.40;;
7683;SDS011;3884;48.616;12.872;2023-04-01T01:03:26;2.20;;;1.10;;
7683;SDS011;3884;48.616;12.872;2023-04-01T01:08:57;1.80;;;1.00;;
7683;SDS011;3884;48.616;12.872;2023-04-01T01:11:47;1.30;;;1.00;;
7683;SDS011;3884;48.616;12.872;2023-04-01T01:14:20;3.20;;;1.50;;
7683;SDS011;3884;48.616;12.872;2023-04-01T01:16:53;3.33;;;1.07;;
7683;SDS011;3884;48.616;12.872;2023-04-01T01:22:28;2.13;;;1.07;;
7683;SDS011;3884;48.616;12.872;2023-04-01T01:25:16;1.93;;;1.10;;
7683;SDS011;3884;48.616;12.872;2023-04-01T01:27:58;2.97;;;1.30;;
7683;SDS011;3884;48.616;12.872;2023-04-01T01:30:40;2.23;;;1.20;;
7683;SDS011;3884;48.616;12.872;2023-04-01T01:33:16;2.30;;;1.10;;
7683;SDS011;3884;48.616;12.872;2023-04-01T01:36:00;6.13;;;2.70;;
7683;SDS011;3884;48.616;12.872;2023-04-01T01:38:31;2.27;;;1.17;;
7683;SDS011;3884;48.616;12.872;2023-04-01T01:41:04;2.37;;;1.20;;
7683;SDS011;3884;48.616;12.872;2023-04-01T01:43:35;2.07;;;1.10;;
7683;SDS011;3884;48.616;12.872;2023-04-01T01:46:05;1.30;;;1.00;;
7683;SDS011;3884;48.616;12.872;2023-04-01T01:48:36;3.23;;;1.20;;
7683;SDS011;3884;48.616;12.872;2023-04-01T01:51:06;2.77;;;1.27;;
7683;SDS011;3884;48.616;12.872;2023-04-01T01:53:34;2.53;;;1.03;;
7683;SDS011;3884;48.616;12.872;2023-04-01T01:56:01;1.70;;;1.00;;
7683;SDS011;3884;48.616;12.872;2023-04-01T01:58:32;2.37;;;1.63;;
7683;SDS011;3884;48.616;12.872;2023-04-01T02:01:06;1.87;;;1.27;;
7683;SDS011;3884;48.616;12.872;2023-04-01T02:03:38;2.03;;;1.17;;
7683;SDS011;3884;48.616;12.872;2023-04-01T02:06:09;3.13;;;1.20;;
7683;SDS011;3884;48.616;12.872;2023-04-01T02:08:41;1.70;;;1.07;;
7683;SDS011;3884;48.616;12.872;2023-04-01T02:11:12;3.43;;;1.60;;
7683;SDS011;3884;48.616;12.872;2023-04-01T02:13:47;2.07;;;1.10;;
7683;SDS011;3884;48.616;12.872;2023-04-01T02:16:19;3.87;;;1.20;;
7683;SDS011;3884;48.616;12.872;2023-04-01T02:18:49;2.27;;;1.20;;
7683;SDS011;3884;48.616;12.872;2023-04-01T02:21:22;2.00;;;1.20;;
7683;SDS011;3884;48.616;12.872;2023-04-01T02:23:52;3.53;;;1.20;;
7683;SDS011;3884;48.616;12.872;2023-04-01T02:26:22;1.83;;;1.17;;
7683;SDS011;3884;48.616;12.872;2023-04-01T02:28:52;2.23;;;1.20;;
7683;SDS011;3884;48.616;12.872;2023-04-01T02:31:19;2.57;;;1.30;;
7683;SDS011;3884;48.616;12.872;2023-04-01T02:33:47;2.70;;;1.30;;
7683;SDS011;3884;48.616;12.872;2023-04-01T02:36:14;2.17;;;1.17;;
7683;SDS011;3884;48.616;12.872;2023-04-01T02:38:44;1.37;;;1.10;;
7683;SDS011;3884;48.616;12.872;2023-04-01T02:41:12;4.03;;;1.30;;
7683;SDS011;3884;48.616;12.872;2023-04-01T02:43:40;2.57;;;1.20;;
7683;SDS011;3884;48.616;12.872;2023-04-01T02:46:07;4.50;;;2.10;;
7683;SDS011;3884;48.616;12.872;2023-04-01T02:48:33;2.60;;;1.37;;
7683;SDS011;3884;48.616;12.872;2023-04-01T02:51:00;2.20;;;1.20;;
7683;SDS011;3884;48.616;12.872;2023-04-01T02:53:27;3.33;;;1.43;;
7683;SDS011;3884;48.616;12.872;2023-04-01T02:55:56;3.40;;;1.50;;
7683;SDS011;3884;48.616;12.872;2023-04-01T02:58:23;2.40;;;1.10;;
7683;SDS011;3884;48.616;12.872;2023-04-01T03:00:50;2.57;;;1.37;;
7683;SDS011;3884;48.616;12.872;2023-04-01T03:03:17;2.33;;;1.20;;
7683;SDS011;3884;48.616;12.872;2023-04-01T03:05:44;2.20;;;1.43;;
7683;SDS011;3884;48.616;12.872;2023-04-01T03:08:11;2.17;;;1.27;;
7683;SDS011;3884;48.616;12.872;2023-04-01T03:10:37;2.00;;;1.20;;
7683;SDS011;3884;48.616;12.872;2023-04-01T03:13:06;1.87;;;1.63;;
7683;SDS011;3884;48.616;12.872;2023-04-01T03:15:34;2.87;;;1.30;;
7683;SDS011;3884;48.616;12.872;2023-04-01T03:18:01;2.60;;;1.20;;
7683;SDS011;3884;48.616;12.872;2023-04-01T03:20:28;2.10;;;1.23;;
7683;SDS011;3884;48.616;12.872;2023-04-01T03:22:55;1.43;;;1.10;;
7683;SDS011;3884;48.616;12.872;2023-04-01T03:25:22;2.13;;;1.20;;
7683;SDS011;3884;48.616;12.872;2023-04-01T03:27:49;1.80;;;1.30;;
7683;SDS011;3884;48.616;12.872;2023-04-01T03:30:17;4.07;;;1.20;;
7683;SDS011;3884;48.616;12.872;2023-04-01T03:32:49;2.13;;;1.30;;
7683;SDS011;3884;48.616;12.872;2023-04-01T03:35:15;2.23;;;1.30;;
7683;SDS011;3884;48.616;12.872;2023-04-01T03:37:44;2.10;;;1.30;;
7683;SDS011;3884;48.616;12.872;2023-04-01T03:40:11;2.80;;;1.50;;
7683;SDS011;3884;48.616;12.872;2023-04-01T03:42:39;3.47;;;1.20;;
7683;SDS011;3884;48.616;12.872;2023-04-01T03:45:06;2.00;;;1.00;;
7683;SDS011;3884;48.616;12.872;2023-04-01T03:47:35;2.30;;;1.20;;
7683;SDS011;3884;48.616;12.872;2023-04-01T03:50:02;1.27;;;1.00;;
7683;SDS011;3884;48.616;12.872;2023-04-01T03:52:30;1.20;;;1.03;;
7683;SDS011;3884;48.616;12.872;2023-04-01T03:54:57;2.07;;;1.10;;
7683;SDS011;3884;48.616;12.872;2023-04-01T03:57:24;2.70;;;1.17;;
7683;SDS011;3884;48.616;12.872;2023-04-01T03:59:52;1.90;;;1.10;;
7683;SDS011;3884;48.616;12.872;2023-04-01T04:02:19;2.30;;;1.13;;
7683;SDS011;3884;48.616;12.872;2023-04-01T04:04:47;3.03;;;1.10;;
7683;SDS011;3884;48.616;12.872;2023-04-01T04:07:14;2.42;;;1.08;;
7683;SDS011;3884;48.616;12.872;2023-04-01T04:09:59;3.57;;;1.47;;
7683;SDS011;3884;48.616;12.872;2023-04-01T04:12:26;2.47;;;1.20;;
7683;SDS011;3884;48.616;12.872;2023-04-01T04:14:53;1.83;;;1.03;;
7683;SDS011;3884;48.616;12.872;2023-04-01T04:17:20;1.63;;;1.10;;
7683;SDS011;3884;48.616;12.872;2023-04-01T04:19:48;1.93;;;1.10;;
7683;SDS011;3884;48.616;12.872;2023-04-01T04:22:15;1.27;;;1.10;;
7683;SDS011;3884;48.616;12.872;2023-04-01T04:24:42;3.40;;;1.17;;
7683;SDS011;3884;48.616;12.872;2023-04-01T04:27:11;1.10;;;1.00;;
7683;SDS011;3884;48.616;12.872;2023-04-01T04:29:51;2.67;;;1.33;;
7683;SDS011;3884;48.616;12.872;2023-04-01T04:32:18;3.87;;;1.43;;
7683;SDS011;3884;48.616;12.872;2023-04-01T04:34:45;1.53;;;1.13;;
7683;SDS011;3884;48.616;12.872;2023-04-01T04:37:13;1.53;;;0.90;;
7683;SDS011;3884;48.616;12.872;2023-04-01T04:39:40;3.23;;;1.10;;
7683;SDS011;3884;48.616;12.872;2023-04-01T04:42:07;1.50;;;1.00;;
7683;SDS011;3884;48.616;12.872;2023-04-01T04:44:34;1.50;;;1.13;;
7683;SDS011;3884;48.616;12.872;2023-04-01T04:47:00;3.00;;;1.20;;
7683;SDS011;3884;48.616;12.872;2023-04-01T04:49:28;2.47;;;1.50;;
7683;SDS011;3884;48.616;12.872;2023-04-01T04:51:55;2.20;;;1.53;;
7683;SDS011;3884;48.616;12.872;2023-04-01T04:54:26;2.40;;;1.03;;
7683;SDS011;3884;48.616;12.872;2023-04-01T04:56:56;2.50;;;1.27;;
7683;SDS011;3884;48.616;12.872;2023-04-01T04:59:24;1.93;;;1.00;;
7683;SDS011;3884;48.616;12.872;2023-04-01T05:02:00;1.77;;;1.03;;
7683;SDS011;3884;48.616;12.872;2023-04-01T05:04:28;2.13;;;1.00;;
7683;SDS011;3884;48.616;12.872;2023-04-01T05:06:55;1.50;;;1.10;;
7683;SDS011;3884;48.616;12.872;2023-04-01T05:09:22;3.30;;;0.90;;
7683;SDS011;3884;48.616;12.872;2023-04-01T05:11:50;2.13;;;0.90;;
7683;SDS011;3884;48.616;12.872;2023-04-01T05:14:19;1.50;;;0.87;;
7683;SDS011;3884;48.616;12.872;2023-04-01T05:16:58;2.07;;;1.10;;
7683;SDS011;3884;48.616;12.872;2023-04-01T05:19:26;1.53;;;0.90;;
7683;SDS011;3884;48.616;12.872;2023-04-01T05:21:53;2.23;;;1.37;;
7683;SDS011;3884;48.616;12.872;2023-04-01T05:24:20;1.00;;;0.97;;
7683;SDS011;3884;48.616;12.872;2023-04-01T05:26:47;1.77;;;1.00;;
7683;SDS011;3884;48.616;12.872;2023-04-01T05:29:15;0.80;;;0.80;;
7683;SDS011;3884;48.616;12.872;2023-04-01T05:31:44;1.07;;;0.90;;
7683;SDS011;3884;48.616;12.872;2023-04-01T05:34:11;1.60;;;1.00;;
7683;SDS011;3884;48.616;12.872;2023-04-01T05:36:39;1.00;;;0.90;;
7683;SDS011;3884;48.616;12.872;2023-04-01T05:39:06;1.77;;;1.10;;
7683;SDS011;3884;48.616;12.872;2023-04-01T05:41:34;1.97;;;1.10;;
7683;SDS011;3884;48.616;12.872;2023-04-01T05:44:01;1.73;;;1.03;;
7683;SDS011;3884;48.616;12.872;2023-04-01T05:46:42;1.23;;;1.00;;
7683;SDS011;3884;48.616;12.872;2023-04-01T05:49:34;1.03;;;0.90;;
7683;SDS011;3884;48.616;12.872;2023-04-01T05:52:03;0.80;;;0.80;;
7683;SDS011;3884;48.616;12.872;2023-04-01T05:54:32;0.90;;;0.90;;
7683;SDS011;3884;48.616;12.872;2023-04-01T05:56:59;1.10;;;1.03;;
7683;SDS011;3884;48.616;12.872;2023-04-01T05:59:26;1.00;;;1.00;;
7683;SDS011;3884;48.616;12.872;2023-04-01T06:01:55;1.10;;;1.00;;
7683;SDS011;3884;48.616;12.872;2023-04-01T06:04:22;2.30;;;1.00;;
7683;SDS011;3884;48.616;12.872;2023-04-01T06:06:49;1.23;;;1.13;;
7683;SDS011;3884;48.616;12.872;2023-04-01T06:09:17;0.90;;;0.90;;
7683;SDS011;3884;48.616;12.872;2023-04-01T06:14:49;1.43;;;1.00;;
7683;SDS011;3884;48.616;12.872;2023-04-01T06:17:26;1.07;;;1.00;;
7683;SDS011;3884;48.616;12.872;2023-04-01T06:20:00;2.83;;;2.00;;
7683;SDS011;3884;48.616;12.872;2023-04-01T06:22:38;1.70;;;1.60;;
7683;SDS011;3884;48.616;12.872;2023-04-01T06:25:21;1.57;;;1.07;;
7683;SDS011;3884;48.616;12.872;2023-04-01T06:28:01;1.63;;;1.40;;
7683;SDS011;3884;48.616;12.872;2023-04-01T06:30:43;1.77;;;1.00;;
7683;SDS011;3884;48.616;12.872;2023-04-01T06:33:29;1.13;;;1.00;;
7683;SDS011;3884;48.616;12.872;2023-04-01T06:36:19;2.00;;;1.03;;
7683;SDS011;3884;48.616;12.872;2023-04-01T06:39:08;1.00;;;1.00;;
7683;SDS011;3884;48.616;12.872;2023-04-01T06:42:01;0.90;;;0.90;;
7683;SDS011;3884;48.616;12.872;2023-04-01T06:44:42;1.70;;;1.10;;
7683;SDS011;3884;48.616;12.872;2023-04-01T06:47:36;1.03;;;1.00;;
7683;SDS011;3884;48.616;12.872;2023-04-01T06:50:51;0.93;;;0.93;;
7683;SDS011;3884;48.616;12.872;2023-04-01T06:53:45;1.20;;;1.10;;
7683;SDS011;3884;48.616;12.872;2023-04-01T06:56:41;2.77;;;1.10;;
7683;SDS011;3884;48.616;12.872;2023-04-01T06:59:22;1.23;;;1.13;;
7683;SDS011;3884;48.616;12.872;2023-04-01T07:01:52;1.50;;;1.40;;
7683;SDS011;3884;48.616;12.872;2023-04-01T07:04:23;1.60;;;1.00;;
7683;SDS011;3884;48.616;12.872;2023-04-01T07:06:57;1.33;;;1.03;;
7683;SDS011;3884;48.616;12.872;2023-04-01T07:09:26;1.50;;;1.37;;
7683;SDS011;3884;48.616;12.872;2023-04-01T07:12:35;3.47;;;1.30;;
7683;SDS011;3884;48.616;12.872;2023-04-01T07:15:15;2.37;;;0.90;;
7683;SDS011;3884;48.616;12.872;2023-04-01T07:17:47;2.20;;;1.20;;
7683;SDS011;3884;48.616;12.872;2023-04-01T07:20:20;2.07;;;1.07;;
7683;SDS011;3884;48.616;12.872;2023-04-01T07:22:54;1.63;;;1.10;;
7683;SDS011;3884;48.616;12.872;2023-04-01T07:25:29;2.13;;;0.90;;
7683;SDS011;3884;48.616;12.872;2023-04-01T07:28:29;1.50;;;1.10;;
7683;SDS011;3884;48.616;12.872;2023-04-01T07:31:08;1.67;;;1.10;;
7683;SDS011;3884;48.616;12.872;2023-04-01T07:33:43;2.47;;;1.10;;
7683;SDS011;3884;48.616;12.872;2023-04-01T07:36:18;2.13;;;1.47;;
7683;SDS011;3884;48.616;12.872;2023-04-01T07:38:53;2.07;;;1.00;;
7683;SDS011;3884;48.616;12.872;2023-04-01T07:41:59;2.10;;;0.93;;
7683;SDS011;3884;48.616;12.872;2023-04-01T07:44:34;1.67;;;1.00;;
7683;SDS011;3884;48.616;12.872;2023-04-01T07:47:12;2.20;;;1.13;;
7683;SDS011;3884;48.616;12.872;2023-04-01T07:49:54;2.50;;;1.20;;
7683;SDS011;3884;48.616;12.872;2023-04-01T07:52:35;3.17;;;1.20;;
7683;SDS011;3884;48.616;12.872;2023-04-01T07:55:20;1.00;;;0.90;;
7683;SDS011;3884;48.616;12.872;2023-04-01T07:57:55;1.37;;;1.00;;
7683;SDS011;3884;48.616;12.872;2023-04-01T08:00:35;3.10;;;1.37;;
7683;SDS011;3884;48.616;12.872;2023-04-01T08:03:25;2.93;;;1.30;;
7683;SDS011;3884;48.616;12.872;2023-04-01T08:06:16;2.67;;;1.30;;
7683;SDS011;3884;48.616;12.872;2023-04-01T08:08:51;2.70;;;1.03;;
7683;SDS011;3884;48.616;12.872;2023-04-01T08:11:50;1.60;;;1.33;;
7683;SDS011;3884;48.616;12.872;2023-04-01T08:14:49;1.77;;;1.10;;
7683;SDS011;3884;48.616;12.872;2023-04-01T08:17:23;4.03;;;1.73;;
7683;SDS011;3884;48.616;12.872;2023-04-01T08:20:02;2.50;;;1.10;;
7683;SDS011;3884;48.616;12.872;2023-04-01T08:22:41;0.93;;;0.90;;
7683;SDS011;3884;48.616;12.872;2023-04-01T08:25:19;1.93;;;1.20;;
7683;SDS011;3884;48.616;12.872;2023-04-01T08:27:51;1.03;;;0.90;;
7683;SDS011;3884;48.616;12.872;2023-04-01T08:30:23;1.33;;;1.03;;
7683;SDS011;3884;48.616;12.872;2023-04-01T08:32:52;1.87;;;1.00;;
7683;SDS011;3884;48.616;12.872;2023-04-01T08:35:26;1.57;;;1.20;;
7683;SDS011;3884;48.616;12.872;2023-04-01T08:38:00;5.60;;;1.23;;
7683;SDS011;3884;48.616;12.872;2023-04-01T08:40:39;1.23;;;1.00;;
7683;SDS011;3884;48.616;12.872;2023-04-01T08:43:21;1.33;;;1.10;;
7683;SDS011;3884;48.616;12.872;2023-04-01T08:46:13;2.60;;;0.87;;
7683;SDS011;3884;48.616;12.872;2023-04-01T08:48:53;1.87;;;1.17;;
7683;SDS011;3884;48.616;12.872;2023-04-01T08:54:47;1.80;;;1.10;;
7683;SDS011;3884;48.616;12.872;2023-04-01T08:58:17;2.47;;;0.90;;
7683;SDS011;3884;48.616;12.872;2023-04-01T09:04:47;2.30;;;1.20;;
7683;SDS011;3884;48.616;12.872;2023-04-01T09:07:35;2.67;;;0.80;;
7683;SDS011;3884;48.616;12.872;2023-04-01T09:10:33;1.40;;;1.13;;
7683;SDS011;3884;48.616;12.872;2023-04-01T09:16:42;1.07;;;0.93;;
7683;SDS011;3884;48.616;12.872;2023-04-01T09:19:28;1.70;;;0.90;;
7683;SDS011;3884;48.616;12.872;2023-04-01T09:22:15;1.13;;;1.03;;
7683;SDS011;3884;48.616;12.872;2023-04-01T09:27:56;2.00;;;1.00;;
7683;SDS011;3884;48.616;12.872;2023-04-01T09:30:33;1.67;;;1.00;;
7683;SDS011;3884;48.616;12.872;2023-04-01T09:33:30;0.70;;;0.70;;
7683;SDS011;3884;48.616;12.872;2023-04-01T09:36:33;2.07;;;1.10;;
7683;SDS011;3884;48.616;12.872;2023-04-01T09:39:15;1.00;;;0.90;;
7683;SDS011;3884;48.616;12.872;2023-04-01T09:41:56;1.67;;;1.00;;
7683;SDS011;3884;48.616;12.872;2023-04-01T09:44:40;1.57;;;1.00;;
7683;SDS011;3884;48.616;12.872;2023-04-01T09:47:20;1.67;;;1.13;;
7683;SDS011;3884;48.616;12.872;2023-04-01T09:50:06;1.73;;;1.07;;
7683;SDS011;3884;48.616;12.872;2023-04-01T09:52:44;0.80;;;0.80;;
7683;SDS011;3884;48.616;12.872;2023-04-01T09:55:30;1.23;;;0.87;;
7683;SDS011;3884;48.616;12.872;2023-04-01T09:58:54;0.83;;;0.80;;
7683;SDS011;3884;48.616;12.872;2023-04-01T10:02:11;1.00;;;0.90;;
7683;SDS011;3884;48.616;12.872;2023-04-01T10:05:24;1.57;;;1.00;;
7683;SDS011;3884;48.616;12.872;2023-04-01T10:11:22;1.43;;;1.00;;
7683;SDS011;3884;48.616;12.872;2023-04-01T10:20:17;1.30;;;0.80;;
7683;SDS011;3884;48.616;12.872;2023-04-01T10:23:11;1.80;;;1.00;;
7683;SDS011;3884;48.616;12.872;2023-04-01T10:29:51;2.30;;;1.27;;
7683;SDS011;3884;48.616;12.872;2023-04-01T10:32:56;2.27;;;1.40;;
7683;SDS011;3884;48.616;12.872;2023-04-01T10:35:57;2.50;;;2.30;;
7683;SDS011;3884;48.616;12.872;2023-04-01T10:38:56;25.67;;;20.17;;
7683;SDS011;3884;48.616;12.872;2023-04-01T10:41:56;2.40;;;2.13;;
7683;SDS011;3884;48.616;12.872;2023-04-01T10:45:34;6.87;;;5.43;;
7683;SDS011;3884;48.616;12.872;2023-04-01T10:48:36;9.90;;;8.90;;
7683;SDS011;3884;48.616;12.872;2023-04-01T10:51:30;2.47;;;1.60;;
7683;SDS011;3884;48.616;12.872;2023-04-01T10:54:40;1.87;;;1.00;;
7683;SDS011;3884;48.616;12.872;2023-04-01T10:57:48;2.60;;;0.90;;
7683;SDS011;3884;48.616;12.872;2023-04-01T11:00:58;1.00;;;0.90;;
7683;SDS011;3884;48.616;12.872;2023-04-01T11:07:47;0.80;;;0.80;;
7683;SDS011;3884;48.616;12.872;2023-04-01T11:14:11;1.13;;;0.90;;
7683;SDS011;3884;48.616;12.872;2023-04-01T11:17:04;1.00;;;0.87;;
7683;SDS011;3884;48.616;12.872;2023-04-01T11:19:50;1.67;;;1.10;;
7683;SDS011;3884;48.616;12.872;2023-04-01T11:22:53;0.73;;;0.70;;
7683;SDS011;3884;48.616;12.872;2023-04-01T11:25:48;1.50;;;0.90;;
7683;SDS011;3884;48.616;12.872;2023-04-01T11:28:54;0.80;;;0.80;;
7683;SDS011;3884;48.616;12.872;2023-04-01T11:31:50;2.30;;;1.10;;
7683;SDS011;3884;48.616;12.872;2023-04-01T11:34:37;1.10;;;1.00;;
7683;SDS011;3884;48.616;12.872;2023-04-01T11:37:19;2.30;;;1.20;;
7683;SDS011;3884;48.616;12.872;2023-04-01T11:40:37;3.10;;;1.40;;
7683;SDS011;3884;48.616;12.872;2023-04-01T11:43:31;2.00;;;1.60;;
7683;SDS011;3884;48.616;12.872;2023-04-01T11:46:23;1.10;;;0.90;;
7683;SDS011;3884;48.616;12.872;2023-04-01T11:49:00;0.87;;;0.83;;
7683;SDS011;3884;48.616;12.872;2023-04-01T11:51:42;1.40;;;0.93;;
7683;SDS011;3884;48.616;12.872;2023-04-01T11:54:29;1.00;;;0.90;;
7683;SDS011;3884;48.616;12.872;2023-04-01T11:57:15;1.30;;;1.00;;
7683;SDS011;3884;48.616;12.872;2023-04-01T12:00:10;0.90;;;0.90;;
7683;SDS011;3884;48.616;12.872;2023-04-01T12:02:50;0.80;;;0.80;;
7683;SDS011;3884;48.616;12.872;2023-04-01T12:05:32;1.00;;;0.90;;
7683;SDS011;3884;48.616;12.872;2023-04-01T12:08:10;1.90;;;1.00;;
7683;SDS011;3884;48.616;12.872;2023-04-01T12:10:59;1.13;;;1.03;;
7683;SDS011;3884;48.616;12.872;2023-04-01T12:13:34;0.70;;;0.70;;
7683;SDS011;3884;48.616;12.872;2023-04-01T12:16:24;0.73;;;0.73;;
7683;SDS011;3884;48.616;12.872;2023-04-01T12:18:59;0.90;;;0.90;;
7683;SDS011;3884;48.616;12.872;2023-04-01T12:21:32;1.13;;;0.87;;
7683;SDS011;3884;48.616;12.872;2023-04-01T12:24:14;0.83;;;0.83;;
7683;SDS011;3884;48.616;12.872;2023-04-01T12:26:59;1.07;;;0.90;;
7683;SDS011;3884;48.616;12.872;2023-04-01T12:29:46;0.97;;;0.70;;
7683;SDS011;3884;48.616;12.872;2023-04-01T12:32:23;0.80;;;0.80;;
7683;SDS011;3884;48.616;12.872;2023-04-01T12:35:01;0.80;;;0.80;;
7683;SDS011;3884;48.616;12.872;2023-04-01T12:37:45;1.30;;;0.83;;
7683;SDS011;3884;48.616;12.872;2023-04-01T12:46:18;0.83;;;0.83;;
7683;SDS011;3884;48.616;12.872;2023-04-01T12:57:58;1.30;;;1.20;;
7683;SDS011;3884;48.616;12.872;2023-04-01T13:00:55;1.13;;;0.83;;
7683;SDS011;3884;48.616;12.872;2023-04-01T13:03:50;1.33;;;1.07;;
7683;SDS011;3884;48.616;12.872;2023-04-01T13:06:41;1.30;;;0.70;;
7683;SDS011;3884;48.616;12.872;2023-04-01T13:09:20;0.60;;;0.60;;
7683;SDS011;3884;48.616;12.872;2023-04-01T13:12:00;0.80;;;0.80;;
7683;SDS011;3884;48.616;12.872;2023-04-01T13:15:01;0.70;;;0.70;;
7683;SDS011;3884;48.616;12.872;2023-04-01T13:17:39;1.00;;;0.90;;
7683;SDS011;3884;48.616;12.872;2023-04-01T13:20:16;0.83;;;0.70;;
7683;SDS011;3884;48.616;12.872;2023-04-01T13:22:54;1.00;;;0.70;;
7683;SDS011;3884;48.616;12.872;2023-04-01T13:25:35;0.83;;;0.77;;
7683;SDS011;3884;48.616;12.872;2023-04-01T13:28:08;0.70;;;0.70;;
7683;SDS011;3884;48.616;12.872;2023-04-01T13:30:43;0.93;;;0.80;;
7683;SDS011;3884;48.616;12.872;2023-04-01T13:33:24;1.03;;;1.00;;
7683;SDS011;3884;48.616;12.872;2023-04-01T13:36:01;1.00;;;1.00;;
7683;SDS011;3884;48.616;12.872;2023-04-01T13:38:46;0.80;;;0.80;;
7683;SDS011;3884;48.616;12.872;2023-04-01T13:41:23;0.90;;;0.90;;
7683;SDS011;3884;48.616;12.872;2023-04-01T13:44:02;0.80;;;0.80;;
7683;SDS011;3884;48.616;12.872;2023-04-01T13:46:42;0.80;;;0.80;;
7683;SDS011;3884;48.616;12.872;2023-04-01T13:49:26;0.80;;;0.80;;
7683;SDS011;3884;48.616;12.872;2023-04-01T13:52:21;1.77;;;1.37;;
7683;SDS011;3884;48.616;12.872;2023-04-01T13:55:03;0.83;;;0.83;;
7683;SDS011;3884;48.616;12.872;2023-04-01T13:57:53;0.80;;;0.80;;
7683;SDS011;3884;48.616;12.872;2023-04-01T14:00:50;0.90;;;0.90;;
7683;SDS011;3884;48.616;12.872;2023-04-01T14:03:27;0.80;;;0.80;;
7683;SDS011;3884;48.616;12.872;2023-04-01T14:06:02;1.13;;;1.07;;
7683;SDS011;3884;48.616;12.872;2023-04-01T14:08:58;1.30;;;0.80;;
7683;SDS011;3884;48.616;12.872;2023-04-01T14:11:50;0.90;;;0.90;;
7683;SDS011;3884;48.616;12.872;2023-04-01T14:14:26;0.97;;;0.97;;
7683;SDS011;3884;48.616;12.872;2023-04-01T14:17:10;0.83;;;0.83;;
7683;SDS011;3884;48.616;12.872;2023-04-01T14:20:00;0.83;;;0.83;;
7683;SDS011;3884;48.616;12.872;2023-04-01T14:22:42;0.90;;;0.90;;
7683;SDS011;3884;48.616;12.872;2023-04-01T14:25:23;0.90;;;0.90;;
7683;SDS011;3884;48.616;12.872;2023-04-01T14:28:08;0.90;;;0.90;;
7683;SDS011;3884;48.616;12.872;2023-04-01T14:30:43;0.80;;;0.80;;
7683;SDS011;3884;48.616;12.872;2023-04-01T14:33:33;0.80;;;0.80;;
7683;SDS011;3884;48.616;12.872;2023-04-01T14:36:18;0.90;;;0.90;;
7683;SDS011;3884;48.616;12.872;2023-04-01T14:39:27;0.90;;;0.90;;
7683;SDS011;3884;48.616;12.872;2023-04-01T14:42:13;0.90;;;0.90;;
7683;SDS011;3884;48.616;12.872;2023-04-01T14:45:09;1.00;;;1.00;;
7683;SDS011;3884;48.616;12.872;2023-04-01T14:47:50;0.90;;;0.90;;
7683;SDS011;3884;48.616;12.872;2023-04-01T14:50:23;0.83;;;0.83;;
7683;SDS011;3884;48.616;12.872;2023-04-01T14:52:58;1.10;;;1.00;;
7683;SDS011;3884;48.616;12.872;2023-04-01T14:55:44;1.40;;;1.10;;
7683;SDS011;3884;48.616;12.872;2023-04-01T14:58:17;1.40;;;0.93;;
7683;SDS011;3884;48.616;12.872;2023-04-01T15:00:47;0.90;;;0.90;;
7683;SDS011;3884;48.616;12.872;2023-04-01T15:03:22;1.40;;;1.20;;
7683;SDS011;3884;48.616;12.872;2023-04-01T15:05:54;6.27;;;3.37;;
7683;SDS011;3884;48.616;12.872;2023-04-01T15:08:28;3.53;;;2.17;;
7683;SDS011;3884;48.616;12.872;2023-04-01T15:10:59;1.90;;;1.30;;
7683;SDS011;3884;48.616;12.872;2023-04-01T15:13:56;4.80;;;3.10;;
7683;SDS011;3884;48.616;12.872;2023-04-01T15:16:45;1.60;;;1.30;;
7683;SDS011;3884;48.616;12.872;2023-04-01T15:19:23;1.77;;;1.47;;
7683;SDS011;3884;48.616;12.872;2023-04-01T15:22:13;1.17;;;1.10;;
7683;SDS011;3884;48.616;12.872;2023-04-01T15:24:57;1.30;;;1.20;;
7683;SDS011;3884;48.616;12.872;2023-04-01T15:27:48;1.43;;;1.07;;
7683;SDS011;3884;48.616;12.872;2023-04-01T15:30:27;1.20;;;1.10;;
7683;SDS011;3884;48.616;12.872;2023-04-01T15:33:02;1.23;;;1.20;;
7683;SDS011;3884;48.616;12.872;2023-04-01T15:35:50;1.30;;;1.20;;
7683;SDS011;3884;48.616;12.872;2023-04-01T15:38:26;1.27;;;1.17;;
7683;SDS011;3884;48.616;12.872;2023-04-01T15:41:02;1.27;;;1.17;;
7683;SDS011;3884;48.616;12.872;2023-04-01T15:43:36;1.40;;;1.30;;
7683;SDS011;3884;48.616;12.872;2023-04-01T15:46:17;10.83;;;9.37;;
7683;SDS011;3884;48.616;12.872;2023-04-01T15:48:57;75.33;;;43.57;;
7683;SDS011;3884;48.616;12.872;2023-04-01T15:51:41;62.30;;;38.60;;
7683;SDS011;3884;48.616;12.872;2023-04-01T15:54:32;65.87;;;41.37;;
7683;SDS011;3884;48.616;12.872;2023-04-01T15:57:15;60.83;;;32.03;;
7683;SDS011;3884;48.616;12.872;2023-04-01T15:59:53;2.50;;;2.30;;
7683;SDS011;3884;48.616;12.872;2023-04-01T16:02:40;1.87;;;1.50;;
7683;SDS011;3884;48.616;12.872;2023-04-01T16:05:21;7.93;;;7.20;;
7683;SDS011;3884;48.616;12.872;2023-04-01T16:08:09;42.43;;;35.53;;
7683;SDS011;3884;48.616;12.872;2023-04-01T16:10:51;45.57;;;40.87;;
7683;SDS011;3884;48.616;12.872;2023-04-01T16:13:31;7.73;;;7.13;;
7683;SDS011;3884;48.616;12.872;2023-04-01T16:16:10;1.60;;;1.40;;
7683;SDS011;3884;48.616;12.872;2023-04-01T16:21:37;2.03;;;1.93;;
7683;SDS011;3884;48.616;12.872;2023-04-01T16:24:12;1.77;;;1.60;;
7683;SDS011;3884;48.616;12.872;2023-04-01T16:26:44;25.57;;;22.97;;
7683;SDS011;3884;48.616;12.872;2023-04-01T16:29:19;8.63;;;8.00;;
7683;SDS011;3884;48.616;12.872;2023-04-01T16:31:53;2.93;;;2.57;;
7683;SDS011;3884;48.616;12.872;2023-04-01T16:34:29;2.50;;;1.20;;
7683;SDS011;3884;48.616;12.872;2023-04-01T16:37:03;1.20;;;1.10;;
7683;SDS011;3884;48.616;12.872;2023-04-01T16:39:41;1.10;;;1.00;;
7683;SDS011;3884;48.616;12.872;2023-04-01T16:42:16;0.97;;;0.93;;
7683;SDS011;3884;48.616;12.872;2023-04-01T16:44:53;1.00;;;1.00;;
7683;SDS011;3884;48.616;12.872;2023-04-01T16:47:27;1.10;;;1.00;;
7683;SDS011;3884;48.616;12.872;2023-04-01T16:49:58;1.50;;;1.30;;
7683;SDS011;3884;48.616;12.872;2023-04-01T16:52:36;7.40;;;6.77;;
7683;SDS011;3884;48.616;12.872;2023-04-01T16:55:14;21.70;;;19.93;;
7683;SDS011;3884;48.616;12.872;2023-04-01T16:57:46;5.87;;;5.17;;
7683;SDS011;3884;48.616;12.872;2023-04-01T17:00:19;7.03;;;6.00;;
7683;SDS011;3884;48.616;12.872;2023-04-01T17:02:54;1.90;;;1.20;;
7683;SDS011;3884;48.616;12.872;2023-04-01T17:05:46;2.17;;;1.30;;
7683;SDS011;3884;48.616;12.872;2023-04-01T17:08:24;1.20;;;1.10;;
7683;SDS011;3884;48.616;12.872;2023-04-01T17:11:02;1.20;;;1.10;;